createdAt,value
2017-05-26T00:02:25.921Z,5.50
2017-05-26T00:04:53.426Z,5.84
2017-05-26T00:07:20.129Z,5.30
2017-05-26T00:09:47.650Z,5.52
2017-05-26T00:12:14.321Z,5.82
2017-05-26T00:14:42.268Z,5.70
2017-05-26T00:17:08.767Z,5.74
2017-05-26T00:19:36.065Z,5.20
2017-05-26T00:22:02.642Z,6.02
2017-05-26T00:24:29.928Z,6.30
2017-05-26T00:26:57.377Z,6.10
2017-05-26T00:29:23.994Z,5.98
2017-05-26T00:31:51.300Z,5.68
2017-05-26T00:34:18.665Z,6.32
2017-05-26T00:36:46.039Z,5.22
2017-05-26T00:39:13.248Z,5.40
2017-05-26T00:41:40.597Z,5.52
2017-05-26T00:44:08.005Z,5.96
2017-05-26T00:46:35.302Z,5.52
2017-05-26T00:49:02.608Z,6.00
2017-05-26T00:51:29.929Z,6.96
2017-05-26T00:53:57.249Z,6.70
2017-05-26T00:56:24.805Z,7.60
2017-05-26T00:58:52.128Z,7.54
2017-05-26T01:01:19.568Z,7.52
2017-05-26T01:03:46.943Z,8.30
2017-05-26T01:06:14.337Z,8.18
2017-05-26T01:08:41.551Z,7.58
2017-05-26T01:11:09.239Z,7.86
2017-05-26T01:13:36.573Z,7.94
2017-05-26T01:16:03.901Z,6.96
2017-05-26T01:18:31.245Z,6.80
2017-05-26T01:20:57.824Z,6.68
2017-05-26T01:23:25.287Z,6.90
2017-05-26T01:25:52.669Z,6.52
2017-05-26T01:28:20.020Z,6.08
2017-05-26T01:30:47.857Z,6.70
2017-05-26T01:33:16.200Z,7.40
2017-05-26T01:35:43.549Z,6.36
2017-05-26T01:38:10.901Z,7.02
2017-05-26T01:40:37.456Z,6.30
2017-05-26T01:43:04.753Z,6.96
2017-05-26T01:45:32.116Z,7.06
2017-05-26T01:47:59.452Z,6.44
2017-05-26T01:50:26.841Z,8.02
2017-05-26T01:52:54.189Z,7.48
2017-05-26T01:55:21.525Z,7.30
2017-05-26T01:57:48.867Z,7.48
2017-05-26T02:00:16.229Z,8.08
2017-05-26T02:02:43.537Z,8.08
2017-05-26T02:05:10.846Z,7.72
2017-05-26T02:07:38.018Z,8.36
2017-05-26T02:10:05.363Z,8.58
2017-05-26T02:12:32.689Z,7.18
2017-05-26T02:15:00.024Z,8.78
2017-05-26T02:17:27.262Z,8.50
2017-05-26T02:19:53.689Z,8.02
2017-05-26T02:22:21.022Z,8.88
2017-05-26T02:24:48.338Z,8.02
2017-05-26T02:27:15.713Z,9.00
2017-05-26T02:29:42.942Z,8.42
2017-05-26T02:32:10.149Z,8.62
2017-05-26T02:34:37.446Z,10.04
2017-05-26T02:37:04.758Z,9.58
2017-05-26T02:39:32.117Z,10.82
2017-05-26T02:41:59.433Z,11.04
2017-05-26T02:44:26.761Z,11.74
2017-05-26T02:46:54.074Z,11.64
2017-05-26T02:49:21.401Z,10.88
2017-05-26T02:51:48.705Z,10.62
2017-05-26T02:54:16.066Z,11.00
2017-05-26T02:56:43.360Z,11.38
2017-05-26T02:59:10.740Z,12.08
2017-05-26T03:01:38.553Z,11.76
2017-05-26T03:04:05.888Z,11.74
2017-05-26T03:06:33.076Z,11.98
2017-05-26T03:09:00.408Z,11.22
2017-05-26T03:11:27.801Z,12.30
2017-05-26T03:13:55.517Z,11.08
2017-05-26T03:16:22.856Z,10.96
2017-05-26T03:18:50.152Z,11.44
2017-05-26T03:21:17.501Z,11.02
2017-05-26T03:23:44.826Z,10.76
2017-05-26T03:26:12.144Z,10.34
2017-05-26T03:28:39.467Z,10.58
2017-05-26T03:31:06.788Z,11.72
2017-05-26T03:33:34.125Z,10.30
2017-05-26T03:36:01.440Z,10.66
2017-05-26T03:38:28.013Z,9.94
2017-05-26T03:40:55.321Z,10.32
2017-05-26T03:43:21.897Z,9.78
2017-05-26T03:45:49.351Z,9.88
2017-05-26T03:48:16.689Z,10.50
2017-05-26T03:50:43.709Z,10.14
2017-05-26T03:53:11.033Z,10.80
2017-05-26T03:55:38.368Z,9.80
2017-05-26T03:58:05.664Z,9.56
2017-05-26T04:00:33.036Z,9.20
2017-05-26T04:03:00.321Z,9.98
2017-05-26T04:05:27.684Z,10.52
2017-05-26T04:07:55.022Z,10.14
2017-05-26T04:10:21.597Z,9.20
2017-05-26T04:12:48.985Z,10.36
2017-05-26T04:15:16.301Z,9.02
2017-05-26T04:17:42.941Z,10.86
2017-05-26T04:20:10.260Z,10.38
2017-05-26T04:22:38.019Z,10.16
2017-05-26T04:25:05.340Z,10.58
2017-05-26T04:27:32.686Z,9.52
2017-05-26T04:30:00.002Z,9.60
2017-05-26T04:32:27.352Z,9.88
2017-05-26T04:34:55.129Z,9.95
2017-05-26T04:37:22.469Z,9.12
2017-05-26T04:39:49.796Z,9.58
2017-05-26T04:42:17.116Z,10.22
2017-05-26T04:44:44.458Z,10.92
2017-05-26T04:47:11.037Z,9.32
2017-05-26T04:49:38.244Z,10.26
2017-05-26T04:52:04.888Z,10.36
2017-05-26T04:54:32.342Z,10.40
2017-05-26T04:56:59.548Z,10.34
2017-05-26T04:59:26.877Z,11.42
2017-05-26T05:01:54.202Z,9.80
2017-05-26T05:04:21.524Z,9.63
2017-05-26T05:06:48.796Z,10.28
2017-05-26T05:09:16.348Z,9.90
2017-05-26T05:11:43.730Z,9.38
2017-05-26T05:14:10.960Z,9.86
2017-05-26T05:16:38.265Z,9.88
2017-05-26T05:19:05.581Z,10.40
2017-05-26T05:21:32.917Z,11.12
2017-05-26T05:24:00.183Z,9.82
2017-05-26T05:26:26.798Z,9.90
2017-05-26T05:28:54.149Z,10.48
2017-05-26T05:31:21.379Z,10.84
2017-05-26T05:33:48.697Z,11.04
2017-05-26T05:36:16.042Z,10.28
2017-05-26T05:38:43.249Z,10.82
2017-05-26T05:41:09.813Z,9.66
2017-05-26T05:43:36.391Z,9.38
2017-05-26T05:46:03.722Z,9.20
2017-05-26T05:48:31.057Z,10.26
2017-05-26T05:50:58.506Z,10.46
2017-05-26T05:53:25.812Z,9.20
2017-05-26T05:55:53.189Z,9.82
2017-05-26T05:58:20.591Z,8.52
2017-05-26T06:00:48.063Z,10.52
2017-05-26T06:03:17.692Z,10.40
2017-05-26T06:05:53.699Z,10.44
2017-05-26T06:08:21.314Z,9.18
2017-05-26T06:10:48.608Z,8.30
2017-05-26T06:13:15.182Z,9.68
2017-05-26T06:15:42.582Z,9.50
2017-05-26T06:18:09.914Z,9.22
2017-05-26T06:20:37.149Z,9.20
2017-05-26T06:23:04.516Z,8.52
2017-05-26T06:25:31.770Z,8.04
2017-05-26T06:27:59.519Z,8.40
2017-05-26T06:30:26.925Z,8.42
2017-05-26T06:32:54.266Z,8.76
2017-05-26T06:35:21.561Z,8.04
2017-05-26T06:37:48.884Z,7.16
2017-05-26T06:40:16.199Z,7.68
2017-05-26T06:42:47.757Z,7.10
2017-05-26T06:45:15.346Z,7.60
2017-05-26T06:47:42.677Z,7.04
2017-05-26T06:50:10.234Z,7.06
2017-05-26T06:52:38.013Z,7.86
2017-05-26T06:55:05.353Z,8.72
2017-05-26T06:57:32.565Z,7.02
2017-05-26T06:59:59.872Z,6.40
2017-05-26T07:02:26.444Z,6.12
2017-05-26T07:04:53.828Z,6.90
2017-05-26T07:07:21.181Z,5.82
2017-05-26T07:09:51.389Z,7.14
2017-05-26T07:12:23.441Z,7.10
2017-05-26T07:14:51.391Z,7.32
2017-05-26T07:17:18.948Z,6.54
2017-05-26T07:19:46.281Z,5.56
2017-05-26T07:22:13.622Z,6.14
2017-05-26T07:24:41.242Z,5.98
2017-05-26T07:27:08.548Z,6.38
2017-05-26T07:29:36.020Z,6.44
2017-05-26T07:32:03.340Z,6.40
2017-05-26T07:34:30.692Z,4.94
2017-05-26T07:36:58.056Z,5.02
2017-05-26T07:39:25.527Z,4.28
2017-05-26T07:41:52.872Z,4.90
2017-05-26T07:44:20.210Z,4.50
2017-05-26T07:46:47.552Z,4.80
2017-05-26T07:49:14.760Z,4.30
2017-05-26T07:51:42.162Z,5.66
2017-05-26T07:54:09.509Z,5.74
2017-05-26T07:56:36.814Z,5.28
2017-05-26T07:59:04.734Z,5.42
2017-05-26T08:01:32.113Z,6.90
2017-05-26T08:03:59.464Z,6.08
2017-05-26T08:06:26.773Z,4.74
2017-05-26T08:08:54.113Z,4.60
2017-05-26T08:11:21.453Z,3.68
2017-05-26T08:13:50.188Z,4.06
2017-05-26T08:16:17.669Z,3.72
2017-05-26T08:18:44.983Z,3.02
2017-05-26T08:21:12.787Z,3.52
2017-05-26T08:23:40.135Z,3.22
2017-05-26T08:26:12.351Z,3.86
2017-05-26T08:28:40.699Z,3.22
2017-05-26T08:31:08.028Z,2.98
2017-05-26T08:33:35.402Z,2.98
2017-05-26T08:36:02.861Z,2.70
2017-05-26T08:38:30.182Z,2.70
2017-05-26T08:40:57.622Z,2.94
2017-05-26T08:43:24.502Z,3.08
2017-05-26T08:45:51.868Z,2.22
2017-05-26T08:48:19.078Z,2.28
2017-05-26T08:50:46.474Z,2.92
2017-05-26T08:53:17.409Z,2.52
2017-05-26T08:55:44.700Z,2.60
2017-05-26T08:58:16.005Z,2.26
2017-05-26T09:00:44.585Z,2.42
2017-05-26T09:03:11.918Z,2.52
2017-05-26T09:05:39.249Z,2.38
2017-05-26T09:08:06.585Z,3.08
2017-05-26T09:10:33.149Z,3.28
2017-05-26T09:13:00.456Z,3.10
2017-05-26T09:15:27.728Z,2.92
2017-05-26T09:17:55.024Z,2.70
2017-05-26T09:20:22.244Z,2.78
2017-05-26T09:22:52.433Z,2.46
2017-05-26T09:25:26.215Z,2.72
2017-05-26T09:27:54.969Z,2.74
2017-05-26T09:30:22.028Z,3.10
2017-05-26T09:32:49.101Z,3.46
2017-05-26T09:35:18.626Z,2.94
2017-05-26T09:37:45.672Z,2.54
2017-05-26T09:40:12.754Z,3.30
2017-05-26T09:42:39.837Z,2.86
2017-05-26T09:45:06.887Z,2.80
2017-05-26T09:47:33.945Z,2.98
2017-05-26T09:50:01.082Z,2.82
2017-05-26T09:52:28.224Z,3.10
2017-05-26T09:54:55.285Z,2.90
2017-05-26T09:57:22.350Z,2.74
2017-05-26T09:59:50.105Z,2.84
2017-05-26T10:02:17.197Z,2.84
2017-05-26T10:04:44.385Z,2.64
2017-05-26T10:07:11.532Z,2.98
2017-05-26T10:09:38.661Z,2.84
2017-05-26T10:12:05.757Z,2.82
2017-05-26T10:14:32.806Z,3.40
2017-05-26T10:16:59.869Z,3.30
2017-05-26T10:19:26.928Z,2.46
2017-05-26T10:21:53.987Z,2.38
2017-05-26T10:24:21.097Z,2.44
2017-05-26T10:26:48.225Z,2.88
2017-05-26T10:29:15.294Z,2.76
2017-05-26T10:31:42.364Z,2.56
2017-05-26T10:34:09.468Z,2.72
2017-05-26T10:36:36.568Z,2.60
2017-05-26T10:39:03.930Z,2.50
2017-05-26T10:41:32.255Z,2.60
2017-05-26T10:44:00.021Z,2.30
2017-05-26T10:46:26.434Z,2.72
2017-05-26T10:48:54.128Z,2.44
2017-05-26T10:51:21.229Z,2.48
2017-05-26T10:53:48.318Z,3.12
2017-05-26T10:56:15.727Z,2.40
2017-05-26T10:58:43.123Z,3.20
2017-05-26T11:01:10.429Z,3.02
2017-05-26T11:03:37.768Z,2.06
2017-05-26T11:06:05.077Z,2.16
2017-05-26T11:08:32.267Z,2.20
2017-05-26T11:10:59.509Z,2.50
2017-05-26T11:13:26.850Z,2.18
2017-05-26T11:15:54.227Z,2.40
2017-05-26T11:18:21.544Z,2.28
2017-05-26T11:20:48.005Z,2.36
2017-05-26T11:23:15.349Z,2.38
2017-05-26T11:25:42.721Z,2.00
2017-05-26T11:28:10.034Z,2.40
2017-05-26T11:30:37.258Z,2.28
2017-05-26T11:33:04.588Z,2.62
2017-05-26T11:35:31.897Z,2.36
2017-05-26T11:37:59.219Z,2.30
2017-05-26T11:40:26.520Z,2.58
2017-05-26T11:42:56.709Z,1.94
2017-05-26T11:45:23.997Z,2.10
2017-05-26T11:47:51.345Z,2.28
2017-05-26T11:50:18.673Z,2.44
2017-05-26T11:52:45.965Z,2.08
2017-05-26T11:55:13.322Z,2.14
2017-05-26T11:57:40.849Z,1.84
2017-05-26T12:00:08.185Z,2.10
2017-05-26T12:02:35.540Z,2.02
2017-05-26T12:05:02.876Z,2.50
2017-05-26T12:07:30.182Z,2.26
2017-05-26T12:09:57.481Z,2.26
2017-05-26T12:12:24.094Z,2.32
2017-05-26T12:14:51.376Z,2.20
2017-05-26T12:17:17.962Z,2.12
2017-05-26T12:19:45.318Z,2.40
2017-05-26T12:22:12.647Z,1.90
2017-05-26T12:24:40.025Z,2.58
2017-05-26T12:27:07.355Z,2.30
2017-05-26T12:29:34.650Z,2.30
2017-05-26T12:32:01.880Z,2.36
2017-05-26T12:34:29.131Z,1.80
2017-05-26T12:36:56.425Z,1.88
2017-05-26T12:39:23.749Z,2.00
2017-05-26T12:41:56.641Z,2.10
2017-05-26T12:44:23.964Z,2.32
2017-05-26T12:46:51.270Z,2.06
2017-05-26T12:49:18.589Z,2.10
2017-05-26T12:51:45.944Z,1.92
2017-05-26T12:54:13.264Z,2.42
2017-05-26T12:56:40.604Z,2.70
2017-05-26T12:59:07.930Z,2.64
2017-05-26T13:01:35.209Z,4.92
2017-05-26T13:04:02.518Z,1.90
2017-05-26T13:06:29.853Z,2.08
2017-05-26T13:08:57.234Z,2.90
2017-05-26T13:11:24.554Z,2.10
2017-05-26T13:13:53.341Z,2.34
2017-05-26T13:16:20.565Z,2.56
2017-05-26T13:18:47.846Z,2.18
2017-05-26T13:21:15.160Z,2.52
2017-05-26T13:23:43.000Z,1.94
2017-05-26T13:26:11.551Z,2.06
2017-05-26T13:28:38.897Z,2.62
2017-05-26T13:31:06.184Z,2.36
2017-05-26T13:33:33.485Z,2.10
2017-05-26T13:36:00.776Z,2.32
2017-05-26T13:38:28.088Z,2.00
2017-05-26T13:40:55.459Z,2.20
2017-05-26T13:43:22.972Z,2.10
2017-05-26T13:45:50.282Z,2.88
2017-05-26T13:48:17.445Z,2.60
2017-05-26T13:50:44.761Z,2.00
2017-05-26T13:53:12.049Z,2.12
2017-05-26T13:55:40.292Z,2.58
2017-05-26T13:58:07.512Z,2.78
2017-05-26T14:00:34.797Z,2.64
2017-05-26T14:03:02.102Z,2.52
2017-05-26T14:05:29.500Z,2.40
2017-05-26T14:07:56.833Z,2.78
2017-05-26T14:10:24.168Z,2.60
2017-05-26T14:12:51.476Z,2.20
2017-05-26T14:15:18.681Z,2.16
2017-05-26T14:17:46.010Z,2.48
2017-05-26T14:20:13.309Z,3.22
2017-05-26T14:22:40.592Z,2.48
2017-05-26T14:25:07.931Z,2.52
2017-05-26T14:27:35.308Z,2.60
2017-05-26T14:30:02.577Z,3.24
2017-05-26T14:32:29.894Z,3.16
2017-05-26T14:34:57.236Z,2.98
2017-05-26T14:37:24.566Z,2.56
2017-05-26T14:39:51.861Z,2.98
2017-05-26T14:42:18.453Z,3.00
2017-05-26T14:44:45.665Z,2.80
2017-05-26T14:47:13.013Z,3.26
2017-05-26T14:49:40.297Z,3.00
2017-05-26T14:52:07.636Z,3.28
2017-05-26T14:54:34.930Z,3.10
2017-05-26T14:57:02.596Z,2.98
2017-05-26T14:59:29.904Z,2.84
2017-05-26T15:01:57.194Z,3.02
2017-05-26T15:04:24.537Z,3.12
2017-05-26T15:06:52.523Z,3.34
2017-05-26T15:09:20.032Z,3.02
2017-05-26T15:11:47.345Z,3.00
2017-05-26T15:14:14.778Z,3.10
2017-05-26T15:16:42.096Z,3.28
2017-05-26T15:19:09.517Z,3.20
2017-05-26T15:21:36.922Z,3.28
2017-05-26T15:24:04.119Z,3.32
2017-05-26T15:26:31.460Z,2.62
2017-05-26T15:28:58.781Z,3.26
2017-05-26T15:31:26.224Z,3.60
2017-05-26T15:33:53.419Z,3.10
2017-05-26T15:36:20.757Z,3.34
2017-05-26T15:38:48.424Z,3.18
2017-05-26T15:41:15.721Z,3.00
2017-05-26T15:43:43.056Z,2.84
2017-05-26T15:46:10.424Z,2.52
2017-05-26T15:48:37.771Z,3.10
2017-05-26T15:51:05.106Z,2.88
2017-05-26T15:53:32.577Z,3.02
2017-05-26T15:55:59.872Z,2.90
2017-05-26T15:58:27.230Z,2.70
2017-05-26T16:00:54.546Z,2.88
2017-05-26T16:03:21.864Z,3.18
2017-05-26T16:05:49.204Z,2.64
2017-05-26T16:08:16.405Z,2.78
2017-05-26T16:10:43.745Z,2.84
2017-05-26T16:13:11.080Z,2.54
2017-05-26T16:15:38.377Z,2.68
2017-05-26T16:18:05.733Z,2.92
2017-05-26T16:20:32.312Z,2.96
2017-05-26T16:22:59.621Z,2.50
2017-05-26T16:25:26.944Z,2.06
2017-05-26T16:27:54.241Z,2.76
2017-05-26T16:30:20.890Z,2.58
2017-05-26T16:32:48.563Z,2.98
2017-05-26T16:35:15.933Z,2.88
2017-05-26T16:37:43.260Z,2.30
2017-05-26T16:40:10.622Z,2.78
2017-05-26T16:42:37.905Z,2.70
2017-05-26T16:45:05.252Z,2.72
2017-05-26T16:47:32.549Z,2.78
2017-05-26T16:49:59.953Z,2.74
2017-05-26T16:52:27.174Z,2.68
2017-05-26T16:54:54.496Z,2.42
2017-05-26T16:57:21.697Z,2.88
2017-05-26T16:59:48.989Z,2.70
2017-05-26T17:02:16.320Z,3.02
2017-05-26T17:04:43.746Z,2.78
2017-05-26T17:07:11.053Z,3.02
2017-05-26T17:09:38.374Z,2.92
2017-05-26T17:12:05.696Z,3.38
2017-05-26T17:14:33.015Z,3.32
2017-05-26T17:17:00.361Z,2.98
2017-05-26T17:19:27.661Z,2.92
2017-05-26T17:21:54.933Z,3.72
2017-05-26T17:24:22.278Z,3.22
2017-05-26T17:26:49.581Z,2.74
2017-05-26T17:29:16.957Z,3.30
2017-05-26T17:31:44.385Z,2.78
2017-05-26T17:34:11.702Z,3.48
2017-05-26T17:36:38.983Z,3.08
2017-05-26T17:39:06.290Z,3.56
2017-05-26T17:41:33.507Z,3.10
2017-05-26T17:44:00.867Z,3.18
2017-05-26T17:46:28.201Z,2.56
2017-05-26T17:48:55.411Z,3.10
2017-05-26T17:51:22.788Z,2.90
2017-05-26T17:53:50.112Z,2.86
2017-05-26T17:56:17.368Z,3.20
2017-05-26T17:58:46.389Z,3.26
2017-05-26T18:01:13.768Z,3.16
2017-05-26T18:03:40.977Z,2.72
2017-05-26T18:06:08.284Z,3.06
2017-05-26T18:08:35.648Z,3.28
2017-05-26T18:11:03.004Z,3.20
2017-05-26T18:13:30.350Z,3.06
2017-05-26T18:15:57.637Z,2.66
2017-05-26T18:18:24.989Z,2.72
2017-05-26T18:20:52.355Z,2.18
2017-05-26T18:23:19.621Z,2.80
2017-05-26T18:25:46.925Z,2.96
2017-05-26T18:28:14.221Z,2.62
2017-05-26T18:30:41.565Z,3.10
2017-05-26T18:33:08.892Z,2.80
2017-05-26T18:35:51.096Z,3.06
2017-05-26T18:38:18.157Z,2.76
2017-05-26T18:40:45.231Z,3.20
2017-05-26T18:43:12.320Z,3.30
2017-05-26T18:45:39.409Z,3.12
2017-05-26T18:48:09.627Z,2.86
2017-05-26T18:50:36.691Z,2.46
2017-05-26T18:53:03.788Z,2.54
2017-05-26T18:55:30.868Z,3.08
2017-05-26T18:57:57.932Z,3.02
2017-05-26T19:00:24.984Z,3.38
2017-05-26T19:02:52.053Z,2.90
2017-05-26T19:05:19.133Z,3.28
2017-05-26T19:07:46.212Z,2.56
2017-05-26T19:10:13.268Z,2.90
2017-05-26T19:12:40.355Z,2.70
2017-05-26T19:15:07.427Z,2.68
2017-05-26T19:17:34.492Z,2.82
2017-05-26T19:20:01.610Z,2.72
2017-05-26T19:22:28.667Z,2.86
2017-05-26T19:24:55.967Z,2.62
2017-05-26T19:27:23.256Z,2.40
2017-05-26T19:29:50.601Z,2.76
2017-05-26T19:32:17.917Z,2.40
2017-05-26T19:34:45.387Z,2.54
2017-05-26T19:37:12.861Z,2.54
2017-05-26T19:39:40.021Z,2.60
2017-05-26T19:42:07.366Z,3.16
2017-05-26T19:44:34.697Z,2.58
2017-05-26T19:47:02.096Z,2.74
2017-05-26T19:49:29.414Z,2.86
2017-05-26T19:51:56.611Z,2.68
2017-05-26T19:54:23.918Z,3.12
2017-05-26T19:56:51.220Z,3.04
2017-05-26T19:59:18.564Z,3.50
2017-05-26T20:01:45.967Z,2.74
2017-05-26T20:04:13.169Z,2.86
2017-05-26T20:06:40.468Z,2.80
2017-05-26T20:09:08.055Z,3.12
2017-05-26T20:11:35.400Z,2.82
2017-05-26T20:14:02.922Z,2.94
2017-05-26T20:16:30.079Z,2.78
2017-05-26T20:18:57.445Z,2.96
2017-05-26T20:21:24.840Z,3.36
2017-05-26T20:23:52.192Z,2.32
2017-05-26T20:26:19.483Z,2.90
2017-05-26T20:28:46.696Z,2.96
2017-05-26T20:31:28.864Z,3.22
2017-05-26T20:33:56.157Z,3.40
2017-05-26T20:36:23.498Z,3.18
2017-05-26T20:38:50.793Z,3.02
2017-05-26T20:41:19.228Z,3.24
2017-05-26T20:43:46.601Z,3.42
2017-05-26T20:46:13.936Z,3.52
2017-05-26T20:48:41.543Z,3.56
2017-05-26T20:51:09.185Z,3.60
2017-05-26T20:53:36.506Z,3.40
2017-05-26T20:56:03.810Z,3.22
2017-05-26T20:58:31.297Z,3.32
2017-05-26T21:00:59.218Z,3.34
2017-05-26T21:03:26.684Z,3.60
2017-05-26T21:05:54.046Z,3.50
2017-05-26T21:08:21.364Z,3.80
2017-05-26T21:10:49.049Z,3.30
2017-05-26T21:13:16.312Z,3.80
2017-05-26T21:15:43.917Z,3.78
2017-05-26T21:18:11.224Z,3.70
2017-05-26T21:20:38.557Z,3.74
2017-05-26T21:23:05.873Z,3.52
2017-05-26T21:25:33.166Z,4.18
2017-05-26T21:28:00.530Z,3.66
2017-05-26T21:30:27.816Z,3.30
2017-05-26T21:32:55.229Z,3.74
2017-05-26T21:35:22.587Z,3.72
2017-05-26T21:37:49.987Z,3.62
2017-05-26T21:40:17.200Z,4.46
2017-05-26T21:42:44.507Z,4.00
2017-05-26T21:45:11.808Z,3.62
2017-05-26T21:47:39.144Z,3.80
2017-05-26T21:50:06.486Z,3.84
2017-05-26T21:52:33.698Z,4.00
2017-05-26T21:55:01.033Z,4.08
2017-05-26T21:57:28.229Z,3.70
2017-05-26T21:59:55.565Z,3.78
2017-05-26T22:02:22.869Z,4.26
2017-05-26T22:04:50.178Z,3.42
2017-05-26T22:07:17.528Z,4.10
2017-05-26T22:09:44.828Z,3.82
2017-05-26T22:12:12.140Z,3.32
2017-05-26T22:14:40.294Z,4.14
2017-05-26T22:17:07.671Z,4.00
2017-05-26T22:19:34.964Z,3.94
2017-05-26T22:22:02.693Z,3.70
2017-05-26T22:24:30.025Z,3.48
2017-05-26T22:26:57.316Z,3.50
2017-05-26T22:29:24.618Z,3.90
2017-05-26T22:31:51.836Z,4.10
2017-05-26T22:34:19.122Z,3.80
2017-05-26T22:36:46.433Z,4.24
2017-05-26T22:39:13.840Z,4.14
2017-05-26T22:41:41.044Z,3.70
2017-05-26T22:44:08.145Z,4.14
2017-05-26T22:46:35.230Z,3.80
2017-05-26T22:49:02.317Z,3.84
2017-05-26T22:51:29.408Z,3.88
2017-05-26T22:53:56.490Z,4.10
2017-05-26T22:56:23.705Z,4.26
2017-05-26T22:58:50.786Z,4.34
2017-05-26T23:01:17.877Z,4.34
2017-05-26T23:03:45.065Z,3.90
2017-05-26T23:06:12.146Z,4.22
2017-05-26T23:08:39.245Z,3.80
2017-05-26T23:11:06.351Z,4.00
2017-05-26T23:13:33.470Z,4.50
2017-05-26T23:16:00.656Z,4.62
2017-05-26T23:18:28.276Z,4.16
2017-05-26T23:20:55.427Z,4.58
2017-05-26T23:23:21.752Z,4.20
2017-05-26T23:25:48.821Z,4.28
2017-05-26T23:28:15.893Z,4.32
2017-05-26T23:30:42.979Z,3.92
2017-05-26T23:33:10.152Z,4.20
2017-05-26T23:35:37.274Z,4.46
2017-05-26T23:38:04.344Z,4.70
2017-05-26T23:40:31.452Z,4.10
2017-05-26T23:42:58.569Z,4.00
2017-05-26T23:45:26.165Z,4.58
2017-05-26T23:47:53.217Z,4.08
2017-05-26T23:50:20.282Z,4.12
2017-05-26T23:52:47.486Z,4.48
2017-05-26T23:55:14.796Z,4.48
2017-05-26T23:57:42.108Z,4.52
